weather.gov     
National Weather Service

Terminal Aerodrome Forecast
NWS Homepage
This page is being discontinued on March 12, 2014.
The same data is available at this site. Please update your bookmarks.
Thank you, and we apologize for the inconvenience.
Please send an email to SR-SRH.Webmaster@noaa.gov with any concerns.


Current Version
Previous Version:    01  02  03  04  05  06  07  08  09  10  11  12  13  14  15  16  17  18  19  20  21  22  23  24  25  26  27  28  29  30  
   31  32  33  34  35  36  37  38  39  40  41  
[Printable]
993
FTUS43 KOAX 010736 AAA
TAFOMA
TAF AMD
KOMA 010736Z 0108/0206 15010KT 6SM -TSRA BR OVC050CB
      TEMPO 0108/0110 4SM TSRA BR OVC030CB
     FM011000 15008KT 4SM -SHRA BR OVC015
      TEMPO 0112/0114 2SM BR BKN007
     FM011400 17008KT P6SM OVC025
     FM011700 17007KT P6SM BKN035 PROB30 0122/0202 5SM -TSRA
      BKN025CB=




993
FTUS43 KOAX 010736 AAA
TAFOMA
TAF AMD
KOMA 010736Z 0108/0206 15010KT 6SM -TSRA BR OVC050CB
      TEMPO 0108/0110 4SM TSRA BR OVC030CB
     FM011000 15008KT 4SM -SHRA BR OVC015
      TEMPO 0112/0114 2SM BR BKN007
     FM011400 17008KT P6SM OVC025
     FM011700 17007KT P6SM BKN035 PROB30 0122/0202 5SM -TSRA
      BKN025CB=


U.S. Dept. of Commerce
NOAA National Weather Service
1325 East West Highway
Silver Spring, MD 20910
E-mail: w-nws.webmaster@noaa.gov
Page last modified: May 16, 2007
NATIONAL WEATHER SERVICE: for Safety, for Work, for Fun - FOR LIFE